createdAt,value
2022-12-25T00:01:53.833Z,232.07
2022-12-25T00:06:59.470Z,225.70
2022-12-25T00:17:08.328Z,223.43
2022-12-25T00:22:12.372Z,211.82
2022-12-25T00:27:16.496Z,228.13
2022-12-25T00:32:21.710Z,194.90
2022-12-25T00:37:25.525Z,224.75
2022-12-25T00:42:29.401Z,192.02
2022-12-25T00:47:34.725Z,210.27
2022-12-25T00:52:38.604Z,170.05
2022-12-25T00:57:42.476Z,191.65
2022-12-25T01:02:47.814Z,156.98
2022-12-25T01:07:51.687Z,178.55
2022-12-25T01:12:55.571Z,170.55
2022-12-25T01:18:07.270Z,102.85
2022-12-25T01:23:11.724Z,104.90
2022-12-25T01:28:15.577Z,145.77
2022-12-25T01:33:20.925Z,190.63
2022-12-25T01:38:24.877Z,207.15
2022-12-25T01:43:30.450Z,153.80
2022-12-25T01:53:39.910Z,205.88
2022-12-25T01:58:43.915Z,218.52
2022-12-25T02:03:49.147Z,205.60
2022-12-25T02:08:53.122Z,213.80
2022-12-25T02:13:56.998Z,217.50
2022-12-25T02:19:06.963Z,202.65
2022-12-25T02:24:31.488Z,191.77
2022-12-25T02:29:43.815Z,190.43
2022-12-25T02:34:51.971Z,204.93
2022-12-25T02:40:00.319Z,212.10
2022-12-25T02:45:23.792Z,217.93
2022-12-25T02:50:45.349Z,210.18
2022-12-25T02:56:07.404Z,212.60
2022-12-25T03:01:45.800Z,218.27
2022-12-25T03:07:01.908Z,202.50
2022-12-25T03:17:12.435Z,204.45
2022-12-25T03:22:37.347Z,188.27
2022-12-25T03:27:42.225Z,210.95
2022-12-25T03:38:29.914Z,206.95
2022-12-25T03:43:58.822Z,183.93
2022-12-25T03:49:27.016Z,154.93
2022-12-25T03:54:49.765Z,152.80
2022-12-25T04:00:07.526Z,109.05
2022-12-25T04:05:31.872Z,143.93
2022-12-25T04:10:53.525Z,141.15
2022-12-25T04:16:14.957Z,188.52
2022-12-25T04:21:37.589Z,109.45
2022-12-25T04:26:58.955Z,158.20
2022-12-25T04:32:20.551Z,15.50
2022-12-25T04:37:25.883Z,31.92
2022-12-25T04:42:29.777Z,8.68
2022-12-25T04:47:34.286Z,9.43
2022-12-25T04:52:40.446Z,9.48
2022-12-25T04:57:44.268Z,8.43
2022-12-25T05:02:48.301Z,8.18
2022-12-25T05:07:53.631Z,7.30
2022-12-25T05:12:57.441Z,8.95
2022-12-25T05:18:01.259Z,10.10
2022-12-25T05:23:06.474Z,10.00
2022-12-25T05:28:10.308Z,10.65
2022-12-25T05:33:14.174Z,10.63
2022-12-25T05:38:19.404Z,9.75
2022-12-25T05:43:24.084Z,10.30
2022-12-25T05:48:27.945Z,65.90
2022-12-25T05:53:33.167Z,9.35
2022-12-25T05:58:39.127Z,9.50
2022-12-25T06:03:43.021Z,33.17
2022-12-25T06:08:48.334Z,112.07
2022-12-25T06:13:52.674Z,8.45
2022-12-25T06:18:56.504Z,9.55
2022-12-25T06:24:02.692Z,9.90
2022-12-25T06:29:07.040Z,41.28
2022-12-25T06:34:11.092Z,9.55
2022-12-25T06:39:16.356Z,8.77
2022-12-25T06:44:20.231Z,9.65
2022-12-25T06:49:24.115Z,9.18
2022-12-25T06:54:29.732Z,8.93
2022-12-25T06:59:33.560Z,8.63
2022-12-25T07:04:40.152Z,7.68
2022-12-25T07:09:45.369Z,8.48
2022-12-25T07:14:50.208Z,7.10
2022-12-25T07:19:54.423Z,8.53
2022-12-25T07:24:59.639Z,9.48
2022-12-25T07:30:03.494Z,7.80
2022-12-25T07:35:07.951Z,8.93
2022-12-25T07:40:14.010Z,51.35
2022-12-25T07:45:17.889Z,76.63
2022-12-25T07:50:21.735Z,69.53
2022-12-25T07:55:26.946Z,64.30
2022-12-25T08:00:32.888Z,45.05
2022-12-25T08:05:36.898Z,38.53
2022-12-25T08:10:46.448Z,38.20
2022-12-25T08:15:50.311Z,28.60
2022-12-25T08:20:54.175Z,22.50
2022-12-25T08:26:04.985Z,16.65
2022-12-25T08:31:11.423Z,18.77
2022-12-25T08:41:20.240Z,16.40
2022-12-25T08:46:24.486Z,19.88
2022-12-25T08:51:28.544Z,16.42
2022-12-25T08:56:33.863Z,19.98
2022-12-25T09:01:37.763Z,14.65
2022-12-25T09:06:41.702Z,14.75
2022-12-25T09:11:46.900Z,14.52
2022-12-25T09:16:51.516Z,16.75
2022-12-25T09:21:55.624Z,14.18
2022-12-25T09:27:02.042Z,18.73
2022-12-25T09:32:06.991Z,23.63
2022-12-25T09:37:10.973Z,17.40
2022-12-25T09:42:18.811Z,20.23
2022-12-25T09:47:25.075Z,19.58
2022-12-25T09:52:34.423Z,16.25
2022-12-25T09:57:39.794Z,25.02
2022-12-25T10:03:04.583Z,13.82
2022-12-25T10:08:15.317Z,11.63
2022-12-25T10:13:40.615Z,11.63
2022-12-25T10:18:57.956Z,9.87
2022-12-25T10:24:08.329Z,19.05
2022-12-25T10:29:15.714Z,21.85
2022-12-25T10:34:19.585Z,11.25
2022-12-25T10:39:25.641Z,9.15
2022-12-25T10:44:31.002Z,19.23
2022-12-25T10:54:39.127Z,18.20
2022-12-25T10:59:45.791Z,15.23
2022-12-25T11:04:49.997Z,7.88
2022-12-25T11:09:59.285Z,17.42
2022-12-25T11:15:38.956Z,11.80
2022-12-25T11:20:49.909Z,12.82
2022-12-25T11:25:57.475Z,14.02
2022-12-25T11:31:06.363Z,8.43
2022-12-25T11:36:17.627Z,11.77
2022-12-25T11:41:30.180Z,21.50
2022-12-25T11:46:41.108Z,11.02
2022-12-25T11:51:47.515Z,12.05
2022-12-25T11:56:51.596Z,8.52
2022-12-25T12:02:00.349Z,10.95
2022-12-25T12:07:07.701Z,11.55
2022-12-25T12:12:18.140Z,6.45
2022-12-25T12:17:23.374Z,16.98
2022-12-25T12:27:34.962Z,11.50
2022-12-25T12:32:42.758Z,11.23
2022-12-25T12:37:48.237Z,9.13
2022-12-25T12:42:52.488Z,10.57
2022-12-25T12:47:58.238Z,13.83
2022-12-25T12:53:18.363Z,6.63
2022-12-25T12:58:33.703Z,7.25
2022-12-25T13:03:58.335Z,11.50
2022-12-25T13:09:08.009Z,9.60
2022-12-25T13:14:15.868Z,13.20
2022-12-25T13:19:23.153Z,10.52
2022-12-25T13:24:28.392Z,11.40
2022-12-25T13:34:38.456Z,15.93
2022-12-25T13:39:49.243Z,14.90
2022-12-25T13:44:55.844Z,12.95
2022-12-25T13:50:02.833Z,10.70
2022-12-25T13:55:14.984Z,11.52
2022-12-25T14:00:20.968Z,13.80
2022-12-25T14:05:37.893Z,18.95
2022-12-25T14:10:47.853Z,19.80
2022-12-25T14:15:53.496Z,18.70
2022-12-25T14:21:01.398Z,19.27
2022-12-25T14:26:05.349Z,14.07
2022-12-25T14:31:12.836Z,19.77
2022-12-25T14:36:18.098Z,17.08
2022-12-25T14:41:33.730Z,16.98
2022-12-25T14:46:37.866Z,15.70
2022-12-25T14:51:44.567Z,20.80
2022-12-25T14:56:49.209Z,21.13
2022-12-25T15:01:55.631Z,20.20
2022-12-25T15:07:07.309Z,27.58
2022-12-25T15:12:11.729Z,24.23
2022-12-25T15:17:25.597Z,25.80
2022-12-25T15:22:53.881Z,32.83
2022-12-25T15:27:54.793Z,19.08
2022-12-25T15:32:58.661Z,19.20
2022-12-25T15:38:03.906Z,16.48
2022-12-25T15:43:14.439Z,20.40
2022-12-25T15:48:26.288Z,20.27
2022-12-25T15:53:31.523Z,31.52
2022-12-25T15:58:35.381Z,19.73
2022-12-25T16:03:39.271Z,22.15
2022-12-25T16:08:45.002Z,25.52
2022-12-25T16:13:48.807Z,22.67
2022-12-25T16:18:52.776Z,30.95
2022-12-25T16:23:57.959Z,30.02
2022-12-25T16:29:06.787Z,30.00
2022-12-25T16:34:11.700Z,26.90
2022-12-25T16:39:17.041Z,33.42
2022-12-25T16:44:20.877Z,24.23
2022-12-25T16:49:24.815Z,15.70
2022-12-25T16:54:30.228Z,35.80
2022-12-25T16:59:34.747Z,39.25
2022-12-25T17:04:39.445Z,42.60
2022-12-25T17:09:44.993Z,56.80
2022-12-25T17:14:48.890Z,71.20
2022-12-25T17:19:52.779Z,78.22
2022-12-25T17:24:58.039Z,67.88
2022-12-25T17:30:01.854Z,42.40
2022-12-25T17:35:06.328Z,64.60
2022-12-25T17:40:12.762Z,55.30
2022-12-25T17:45:16.645Z,53.50
2022-12-25T17:50:20.509Z,52.03
2022-12-25T17:55:25.717Z,58.83
2022-12-25T18:00:29.543Z,48.20
2022-12-25T18:05:37.027Z,51.58
2022-12-25T18:10:43.380Z,61.58
2022-12-25T18:15:47.291Z,60.55
2022-12-25T18:20:51.153Z,69.35
2022-12-25T18:25:56.441Z,63.97
2022-12-25T18:31:00.636Z,37.30
2022-12-25T18:36:05.404Z,51.70
2022-12-25T18:41:11.458Z,42.78
2022-12-25T18:46:17.665Z,40.33
2022-12-25T18:51:21.565Z,51.85
2022-12-25T18:56:26.840Z,50.60
2022-12-25T19:01:30.809Z,48.60
2022-12-25T19:06:35.000Z,53.25
2022-12-25T19:11:46.219Z,34.67
2022-12-25T19:16:52.206Z,44.22
2022-12-25T19:21:57.189Z,35.22
2022-12-25T19:27:02.454Z,62.28
2022-12-25T19:32:06.903Z,24.40
2022-12-25T19:37:10.854Z,30.52
2022-12-25T19:42:18.944Z,44.35
2022-12-25T19:47:23.111Z,43.30
2022-12-25T19:52:27.024Z,46.50
2022-12-25T19:57:32.301Z,55.80
2022-12-25T20:02:36.271Z,40.67
2022-12-25T20:07:40.197Z,89.57
2022-12-25T20:12:45.462Z,145.13
2022-12-25T20:17:49.345Z,98.83
2022-12-25T20:22:53.187Z,130.90
2022-12-25T20:27:58.611Z,126.68
2022-12-25T20:33:02.756Z,142.40
2022-12-25T20:38:06.633Z,152.20
2022-12-25T20:43:11.883Z,138.65
2022-12-25T20:48:15.716Z,81.72
2022-12-25T20:53:20.312Z,145.95
2022-12-25T20:58:25.556Z,161.30
2022-12-25T21:03:29.572Z,179.25
2022-12-25T21:08:33.568Z,190.95
2022-12-25T21:13:40.534Z,185.98
2022-12-25T21:18:44.496Z,212.25
2022-12-25T21:23:48.382Z,210.68
2022-12-25T21:28:55.507Z,213.32
2022-12-25T21:33:59.665Z,223.20
2022-12-25T21:39:05.001Z,226.25
2022-12-25T21:44:11.794Z,218.55
2022-12-25T21:49:36.481Z,222.40
2022-12-25T21:54:40.327Z,226.65
2022-12-25T21:59:45.676Z,237.35
2022-12-25T22:04:49.508Z,243.00
2022-12-25T22:09:53.604Z,230.88
2022-12-25T22:15:03.014Z,232.63
2022-12-25T22:20:08.914Z,236.43
2022-12-25T22:30:19.623Z,238.23
2022-12-25T22:35:23.666Z,239.02
2022-12-25T22:40:27.516Z,242.00
2022-12-25T22:45:32.757Z,252.70
2022-12-25T22:50:36.672Z,261.38
2022-12-25T22:55:40.528Z,264.50
2022-12-25T23:00:46.748Z,248.60
2022-12-25T23:05:55.481Z,242.50
2022-12-25T23:11:03.006Z,231.40
2022-12-25T23:16:08.282Z,239.85
2022-12-25T23:21:30.919Z,171.55
2022-12-25T23:26:34.776Z,242.10
2022-12-25T23:31:41.980Z,240.38
2022-12-25T23:36:46.235Z,242.07
2022-12-25T23:41:50.091Z,241.55
2022-12-25T23:46:55.449Z,260.42
2022-12-25T23:51:59.368Z,235.57
2022-12-25T23:57:03.202Z,241.43
